Time;durP1;ratioP1;P1;durP2;ratioP2;P2;SDS_P1;SDS_P2;PMS_P1;PMS_P2;Temp;Humidity;BMP_temperature;BMP_pressure;BME280_temperature;BME280_humidity;BME280_pressure;Samples;Min_cycle;Max_cycle;Signal;HPM_P1;HPM_P2
2022/03/12 00:00:48;;;;;;;;;;;6.80;58.30;;;;;;5096302;28;19908;-56
2022/03/12 00:03:13;;;;;;;;;;;6.80;57.90;;;;;;5095855;28;19908;-56
2022/03/12 00:05:48;;;;;;;;;;;6.80;58.40;;;;;;5096329;28;20237;-56
2022/03/12 00:08:13;;;;;;;;;;;6.80;58.80;;;;;;5096205;28;19908;-56
2022/03/12 00:10:39;;;;;;;;;;;6.80;58.90;;;;;;5077264;28;19970;-56
2022/03/12 00:13:04;;;;;;;;;;;6.80;58.40;;;;;;5076009;28;19916;-56
2022/03/12 00:15:32;;;;;;;;;;;6.80;59.00;;;;;;5075785;28;19961;-56
2022/03/12 00:17:58;;;;;;;;;;;6.80;59.40;;;;;;5076375;28;19909;-56
2022/03/12 00:20:28;;;;;;;;;;;6.80;59.20;;;;;;5075784;28;19924;-56
2022/03/12 00:22:54;;;;;;;;;;;6.80;57.70;;;;;;5075343;28;19970;-56
2022/03/12 00:25:22;;;;;;;;;;;6.80;59.10;;;;;;5075103;28;19908;-55
2022/03/12 00:27:51;;;;;;;;;;;6.70;58.30;;;;;;5075754;28;19916;-56
2022/03/12 00:30:19;;;;;;;;;;;6.80;58.80;;;;;;5092262;28;20315;-56
2022/03/12 00:32:47;;;;;;;;;;;6.80;58.90;;;;;;5095231;28;19912;-56
2022/03/12 00:35:14;;;;;;;;;;;6.80;59.00;;;;;;5095418;28;20266;-56
2022/03/12 00:37:39;;;;;;;;;;;6.80;57.90;;;;;;5095043;28;19990;-56
2022/03/12 00:40:05;;;;;;;;;;;6.70;57.30;;;;;;5095772;28;20378;-56
2022/03/12 00:42:31;;;;;;;;;;;6.80;58.70;;;;;;5095448;28;19908;-56
2022/03/12 00:44:57;;;;;;;;;;;6.70;58.50;;;;;;5095077;28;20363;-56
2022/03/12 00:47:22;;;;;;;;;;;6.80;58.60;;;;;;5095345;28;19908;-56
2022/03/12 00:49:49;;;;;;;;;;;6.80;57.70;;;;;;5095348;28;19916;-56
2022/03/12 00:52:14;;;;;;;;;;;6.70;58.70;;;;;;5094916;28;19912;-56
2022/03/12 00:54:40;;;;;;;;;;;6.80;58.90;;;;;;5095262;28;19908;-56
2022/03/12 00:57:05;;;;;;;;;;;6.80;59.60;;;;;;5095265;28;19943;-56
2022/03/12 00:59:31;;;;;;;;;;;6.80;59.50;;;;;;5083840;28;19909;-56
2022/03/12 01:01:57;;;;;;;;;;;6.80;59.40;;;;;;5075065;28;19920;-56
2022/03/12 01:04:22;;;;;;;;;;;6.80;58.70;;;;;;5074850;28;20449;-56
2022/03/12 01:06:48;;;;;;;;;;;6.80;58.60;;;;;;5074326;28;19961;-56
2022/03/12 01:09:13;;;;;;;;;;;6.80;58.60;;;;;;5074790;28;19935;-56
2022/03/12 01:11:40;;;;;;;;;;;6.90;58.90;;;;;;5074731;28;19912;-56
2022/03/12 01:14:06;;;;;;;;;;;6.90;57.70;;;;;;5074316;28;19913;-56
2022/03/12 01:16:32;;;;;;;;;;;6.90;57.20;;;;;;5074478;28;19908;-56
2022/03/12 01:18:58;;;;;;;;;;;6.90;58.30;;;;;;5074535;28;19916;-56
2022/03/12 01:21:23;;;;;;;;;;;6.90;57.90;;;;;;5073934;28;20275;-56
2022/03/12 01:23:49;;;;;;;;;;;6.90;57.20;;;;;;5074311;28;19908;-56
2022/03/12 01:26:15;;;;;;;;;;;6.90;56.70;;;;;;5074474;28;19913;-56
2022/03/12 01:28:41;;;;;;;;;;;6.90;57.60;;;;;;5076702;28;19922;-56
2022/03/12 01:31:07;;;;;;;;;;;7.00;56.50;;;;;;5094359;28;19912;-56
2022/03/12 01:33:33;;;;;;;;;;;7.00;57.10;;;;;;5093662;28;19926;-56
2022/03/12 01:35:58;;;;;;;;;;;7.00;57.90;;;;;;5093657;28;19951;-57
2022/03/12 01:38:28;;;;;;;;;;;7.00;58.50;;;;;;5094573;28;19919;-56
2022/03/12 01:40:54;;;;;;;;;;;6.90;58.60;;;;;;5093815;28;20312;-56
2022/03/12 01:43:19;;;;;;;;;;;6.90;59.00;;;;;;5094412;28;20382;-56
2022/03/12 01:45:45;;;;;;;;;;;6.90;59.20;;;;;;5094223;28;19962;-56
2022/03/12 01:48:10;;;;;;;;;;;6.90;59.40;;;;;;5093818;28;19908;-56
2022/03/12 01:50:36;;;;;;;;;;;6.80;59.30;;;;;;5094159;28;19970;-56
2022/03/12 01:53:04;;;;;;;;;;;6.80;60.30;;;;;;5094145;28;19908;-57
2022/03/12 01:55:30;;;;;;;;;;;6.80;59.90;;;;;;5093503;28;19908;-56
2022/03/12 01:57:58;;;;;;;;;;;6.80;58.50;;;;;;5094206;28;20041;-56
2022/03/12 02:00:25;;;;;;;;;;;6.80;58.20;;;;;;5093385;28;19965;-56
2022/03/12 02:02:53;;;;;;;;;;;6.80;57.70;;;;;;5093425;28;20335;-56
2022/03/12 02:05:20;;;;;;;;;;;6.80;59.00;;;;;;5094011;28;19908;-56
2022/03/12 02:07:46;;;;;;;;;;;6.80;58.40;;;;;;5094025;28;19908;-56
2022/03/12 02:10:14;;;;;;;;;;;6.80;59.00;;;;;;5091672;28;19924;-56
2022/03/12 02:12:40;;;;;;;;;;;6.80;59.20;;;;;;5093802;28;19908;-56
2022/03/12 02:15:05;;;;;;;;;;;6.80;59.20;;;;;;5093844;28;19908;-56
2022/03/12 02:17:31;;;;;;;;;;;6.80;60.50;;;;;;5093376;28;19990;-56
2022/03/12 02:19:56;;;;;;;;;;;6.70;60.20;;;;;;5093926;28;19915;-56
2022/03/12 02:22:22;;;;;;;;;;;6.80;59.40;;;;;;5093716;28;19912;-56
2022/03/12 02:24:47;;;;;;;;;;;6.80;59.10;;;;;;5093224;28;19909;-56
2022/03/12 02:27:13;;;;;;;;;;;6.80;59.40;;;;;;5093720;28;19955;-56
2022/03/12 02:29:40;;;;;;;;;;;6.70;59.40;;;;;;5085095;28;19988;-56
2022/03/12 02:32:09;;;;;;;;;;;6.70;59.70;;;;;;5092579;28;19912;-56
2022/03/12 02:34:45;;;;;;;;;;;6.70;61.20;;;;;;5093189;28;20243;-56
2022/03/12 02:37:11;;;;;;;;;;;6.70;61.20;;;;;;5093014;28;20362;-56
2022/03/12 02:39:38;;;;;;;;;;;6.60;62.00;;;;;;5093525;28;19912;-56
2022/03/12 02:42:05;;;;;;;;;;;6.60;62.60;;;;;;5093600;28;19908;-56
2022/03/12 02:44:30;;;;;;;;;;;6.60;62.70;;;;;;5092905;28;20278;-56
2022/03/12 02:47:13;;;;;;;;;;;6.60;64.10;;;;;;5097104;28;19908;-56
2022/03/12 02:49:47;;;;;;;;;;;6.60;64.20;;;;;;5095369;28;19931;-56
2022/03/12 02:52:13;;;;;;;;;;;6.50;62.90;;;;;;5096921;28;19963;-56
2022/03/12 02:54:40;;;;;;;;;;;6.60;64.50;;;;;;5097487;28;19912;-56
2022/03/12 02:57:06;;;;;;;;;;;6.50;64.60;;;;;;5097621;28;19915;-56
2022/03/12 02:59:33;;;;;;;;;;;6.50;60.90;;;;;;5097012;28;19908;-56
2022/03/12 03:02:02;;;;;;;;;;;6.60;61.70;;;;;;5097617;28;19954;-56
2022/03/12 03:04:31;;;;;;;;;;;6.60;60.20;;;;;;5097366;28;19916;-56
2022/03/12 03:07:00;;;;;;;;;;;6.60;60.20;;;;;;5097025;28;19908;-56
2022/03/12 03:09:26;;;;;;;;;;;6.60;61.20;;;;;;5085101;28;20359;-56
2022/03/12 03:11:52;;;;;;;;;;;6.60;60.20;;;;;;5077118;28;19908;-56
2022/03/12 03:14:19;;;;;;;;;;;6.60;59.70;;;;;;5076844;28;20419;-56
2022/03/12 03:16:47;;;;;;;;;;;6.70;57.60;;;;;;5076917;28;19936;-56
2022/03/12 03:19:14;;;;;;;;;;;6.70;59.40;;;;;;5076636;28;19962;-56
2022/03/12 03:21:39;;;;;;;;;;;6.70;58.40;;;;;;5076737;28;20007;-56
2022/03/12 03:24:05;;;;;;;;;;;6.70;59.80;;;;;;5076741;28;20015;-56
2022/03/12 03:26:33;;;;;;;;;;;6.70;60.40;;;;;;5076161;28;19908;-56
2022/03/12 03:28:59;;;;;;;;;;;6.70;61.40;;;;;;5076695;28;19913;-56
2022/03/12 03:31:24;;;;;;;;;;;6.70;61.90;;;;;;5076646;28;19916;-56
2022/03/12 03:33:50;;;;;;;;;;;6.60;61.10;;;;;;5075814;28;19921;-56
2022/03/12 03:36:15;;;;;;;;;;;6.60;60.40;;;;;;5076445;28;19909;-56
2022/03/12 03:38:41;;;;;;;;;;;6.60;61.60;;;;;;5080805;28;19918;-56
2022/03/12 03:41:06;;;;;;;;;;;6.60;61.70;;;;;;5096290;28;19926;-56
2022/03/12 03:43:32;;;;;;;;;;;6.70;60.70;;;;;;5096625;28;19908;-57
2022/03/12 03:45:57;;;;;;;;;;;6.60;61.30;;;;;;5096822;28;19964;-56
2022/03/12 03:48:24;;;;;;;;;;;6.60;61.90;;;;;;5095986;28;19915;-56
2022/03/12 03:50:50;;;;;;;;;;;6.60;60.20;;;;;;5096540;28;19965;-56
2022/03/12 03:53:17;;;;;;;;;;;6.60;60.60;;;;;;5096564;28;19908;-56
2022/03/12 03:55:43;;;;;;;;;;;6.50;61.50;;;;;;5095951;28;19915;-56
2022/03/12 03:58:11;;;;;;;;;;;6.50;61.00;;;;;;5095259;28;19908;-56
2022/03/12 04:00:36;;;;;;;;;;;6.40;62.50;;;;;;5096334;28;20328;-57
2022/03/12 04:03:05;;;;;;;;;;;6.40;61.30;;;;;;5095963;28;19909;-56
2022/03/12 04:05:31;;;;;;;;;;;6.30;62.30;;;;;;5096276;28;19908;-56
2022/03/12 04:07:57;;;;;;;;;;;6.30;62.10;;;;;;5096254;28;20327;-56
2022/03/12 04:10:23;;;;;;;;;;;6.20;62.70;;;;;;5076047;28;19921;-56
2022/03/12 04:12:49;;;;;;;;;;;6.20;62.20;;;;;;5075830;28;20351;-56
2022/03/12 04:15:16;;;;;;;;;;;6.20;61.40;;;;;;5075987;28;19919;-56
2022/03/12 04:17:43;;;;;;;;;;;6.10;62.90;;;;;;5075302;28;19991;-56
2022/03/12 04:20:09;;;;;;;;;;;6.10;62.60;;;;;;5075816;28;19915;-56
2022/03/12 04:22:37;;;;;;;;;;;6.20;63.90;;;;;;5075186;28;19913;-57
2022/03/12 04:25:02;;;;;;;;;;;6.10;62.60;;;;;;5075716;28;19908;-56
2022/03/12 04:27:28;;;;;;;;;;;6.10;64.10;;;;;;5075624;28;19991;-56
2022/03/12 04:29:53;;;;;;;;;;;6.10;64.10;;;;;;5075035;28;19920;-56
2022/03/12 04:32:20;;;;;;;;;;;6.10;64.70;;;;;;5075612;28;20366;-57
2022/03/12 04:34:46;;;;;;;;;;;6.10;63.20;;;;;;5075233;28;19924;-57
2022/03/12 04:37:11;;;;;;;;;;;6.10;64.00;;;;;;5075018;28;19977;-56
2022/03/12 04:39:37;;;;;;;;;;;6.10;63.80;;;;;;5087805;28;20346;-56
2022/03/12 04:42:03;;;;;;;;;;;6.10;63.60;;;;;;5095585;28;19908;-56
2022/03/12 04:44:28;;;;;;;;;;;6.10;62.30;;;;;;5095001;28;19968;-57
2022/03/12 04:46:54;;;;;;;;;;;6.10;63.90;;;;;;5091594;28;19951;-56
2022/03/12 04:49:19;;;;;;;;;;;6.10;63.20;;;;;;5075191;28;19935;-56
2022/03/12 04:51:45;;;;;;;;;;;6.10;65.00;;;;;;5074541;28;19908;-56
2022/03/12 04:54:10;;;;;;;;;;;6.00;65.50;;;;;;5075228;28;19909;-56
2022/03/12 04:56:35;;;;;;;;;;;6.00;65.90;;;;;;5075070;28;19959;-56
2022/03/12 04:59:01;;;;;;;;;;;5.90;66.10;;;;;;5074647;28;19953;-56
2022/03/12 05:01:28;;;;;;;;;;;5.90;63.70;;;;;;5075040;28;19989;-57
2022/03/12 05:03:53;;;;;;;;;;;5.90;65.10;;;;;;5074947;28;19915;-57
2022/03/12 05:06:19;;;;;;;;;;;5.80;63.00;;;;;;5074500;28;19909;-56
2022/03/12 05:08:45;;;;;;;;;;;5.90;63.90;;;;;;5075562;28;19943;-56
2022/03/12 05:11:10;;;;;;;;;;;5.80;64.20;;;;;;5074934;28;19927;-56
2022/03/12 05:13:36;;;;;;;;;;;5.80;63.30;;;;;;5074038;28;19948;-56
2022/03/12 05:16:03;;;;;;;;;;;5.80;63.60;;;;;;5074612;28;19912;-56
2022/03/12 05:18:28;;;;;;;;;;;5.80;64.20;;;;;;5074566;28;19947;-56
2022/03/12 05:20:54;;;;;;;;;;;5.80;63.70;;;;;;5074168;28;19943;-57
2022/03/12 05:23:20;;;;;;;;;;;5.80;61.20;;;;;;5074373;28;20294;-56
2022/03/12 05:25:47;;;;;;;;;;;5.70;62.80;;;;;;5074472;28;20432;-56
2022/03/12 05:28:16;;;;;;;;;;;5.70;63.40;;;;;;5074083;28;20427;-56
2022/03/12 05:30:45;;;;;;;;;;;5.50;62.20;;;;;;5074307;28;20352;-56
2022/03/12 05:33:11;;;;;;;;;;;5.50;64.70;;;;;;5073648;28;19968;-56
2022/03/12 05:35:39;;;;;;;;;;;5.50;64.20;;;;;;5074446;28;20352;-57
2022/03/12 05:38:06;;;;;;;;;;;5.40;63.60;;;;;;5074272;28;19912;-56
2022/03/12 05:40:34;;;;;;;;;;;5.50;64.10;;;;;;5074724;28;19912;-56
2022/03/12 05:43:00;;;;;;;;;;;5.40;63.00;;;;;;5074210;28;19908;-56
2022/03/12 05:45:25;;;;;;;;;;;5.50;61.00;;;;;;5073983;28;19912;-56
2022/03/12 05:47:51;;;;;;;;;;;5.50;62.40;;;;;;5073641;28;19947;-56
2022/03/12 05:50:17;;;;;;;;;;;5.50;61.40;;;;;;5074016;28;19947;-56
2022/03/12 05:52:46;;;;;;;;;;;5.50;63.00;;;;;;5073932;28;20386;-56
2022/03/12 05:55:12;;;;;;;;;;;5.50;63.50;;;;;;5073504;28;19908;-57
2022/03/12 05:57:38;;;;;;;;;;;5.40;63.40;;;;;;5073892;28;19908;-56
2022/03/12 06:00:11;;;;;;;;;;;5.40;64.80;;;;;;5073809;28;19916;-56
2022/03/12 06:02:51;;;;;;;;;;;5.40;65.20;;;;;;5073224;28;20379;-56
2022/03/12 06:05:17;;;;;;;;;;;5.40;67.30;;;;;;5073919;28;20432;-56
2022/03/12 06:07:46;;;;;;;;;;;5.40;67.80;;;;;;5073546;28;19915;-56
2022/03/12 06:10:13;;;;;;;;;;;5.30;69.30;;;;;;5091710;28;19920;-57
2022/03/12 06:12:42;;;;;;;;;;;5.30;70.00;;;;;;5093871;28;19920;-57
2022/03/12 06:15:08;;;;;;;;;;;5.40;70.40;;;;;;5093529;28;19908;-57
2022/03/12 06:17:33;;;;;;;;;;;5.40;71.90;;;;;;5093834;28;19962;-57
2022/03/12 06:19:58;;;;;;;;;;;5.40;71.40;;;;;;5093363;28;19915;-56
2022/03/12 06:22:24;;;;;;;;;;;5.50;69.20;;;;;;5093244;28;19917;-57
2022/03/12 06:24:49;;;;;;;;;;;5.50;71.70;;;;;;5093629;28;20018;-57
2022/03/12 06:27:17;;;;;;;;;;;5.60;71.00;;;;;;5093613;28;19912;-57
2022/03/12 06:29:42;;;;;;;;;;;5.70;70.90;;;;;;5093106;28;19923;-56
2022/03/12 06:32:08;;;;;;;;;;;5.70;69.60;;;;;;5093515;28;20263;-57
2022/03/12 06:34:35;;;;;;;;;;;5.80;71.10;;;;;;5093268;28;19920;-56
2022/03/12 06:37:01;;;;;;;;;;;5.80;70.50;;;;;;5092747;28;19920;-57
2022/03/12 06:39:26;;;;;;;;;;;5.80;67.20;;;;;;5091915;28;19919;-57
2022/03/12 06:41:53;;;;;;;;;;;5.90;66.50;;;;;;5092828;28;19935;-56
2022/03/12 06:44:19;;;;;;;;;;;5.90;65.90;;;;;;5093106;28;19908;-57
2022/03/12 06:46:45;;;;;;;;;;;6.00;64.20;;;;;;5093365;28;20335;-56
2022/03/12 06:49:10;;;;;;;;;;;6.10;65.80;;;;;;5093522;28;20003;-56
2022/03/12 06:51:38;;;;;;;;;;;6.10;65.80;;;;;;5075846;28;19939;-57
2022/03/12 06:54:04;;;;;;;;;;;6.20;64.00;;;;;;5072129;28;19909;-56
2022/03/12 06:56:34;;;;;;;;;;;6.30;62.30;;;;;;5072638;28;19908;-57
2022/03/12 06:58:59;;;;;;;;;;;6.40;62.40;;;;;;5071939;28;19995;-57
2022/03/12 07:01:25;;;;;;;;;;;6.50;62.90;;;;;;5072400;28;19955;-56
2022/03/12 07:03:50;;;;;;;;;;;6.50;63.00;;;;;;5072738;28;20412;-57
2022/03/12 07:06:16;;;;;;;;;;;6.60;61.40;;;;;;5071790;28;20252;-57
2022/03/12 07:08:41;;;;;;;;;;;6.70;61.90;;;;;;5073660;28;19912;-57
2022/03/12 07:11:07;;;;;;;;;;;6.80;62.60;;;;;;5092168;28;20003;-56
2022/03/12 07:13:34;;;;;;;;;;;6.80;59.30;;;;;;5092034;28;19908;-57
2022/03/12 07:16:00;;;;;;;;;;;6.90;59.20;;;;;;5092376;28;19908;-57
2022/03/12 07:18:26;;;;;;;;;;;6.90;59.20;;;;;;5092008;28;19916;-57
2022/03/12 07:20:52;;;;;;;;;;;7.00;59.90;;;;;;5092491;28;19915;-57
2022/03/12 07:23:17;;;;;;;;;;;7.00;60.80;;;;;;5092319;28;20358;-56
2022/03/12 07:25:43;;;;;;;;;;;7.10;61.30;;;;;;5092072;28;20771;-57
2022/03/12 07:28:10;;;;;;;;;;;7.10;59.80;;;;;;5092132;28;19909;-56
2022/03/12 07:30:35;;;;;;;;;;;7.00;59.70;;;;;;5092483;28;20016;-57
2022/03/12 07:33:01;;;;;;;;;;;7.00;59.20;;;;;;5094635;28;19985;-57
2022/03/12 07:35:26;;;;;;;;;;;7.00;59.00;;;;;;5096349;28;19915;-57
2022/03/12 07:37:53;;;;;;;;;;;7.00;58.80;;;;;;5096174;28;19915;-57
2022/03/12 07:40:19;;;;;;;;;;;7.00;59.50;;;;;;5088738;28;20374;-57
2022/03/12 07:42:45;;;;;;;;;;;7.00;56.70;;;;;;5110968;28;19911;-57
2022/03/12 07:45:11;;;;;;;;;;;7.00;60.40;;;;;;5113203;28;19912;-56
2022/03/12 07:47:37;;;;;;;;;;;7.10;58.30;;;;;;5095481;28;20001;-56
2022/03/12 07:50:05;;;;;;;;;;;7.20;58.80;;;;;;5095673;28;20015;-57
2022/03/12 07:52:30;;;;;;;;;;;7.30;61.90;;;;;;5095881;28;19942;-56
2022/03/12 07:54:56;;;;;;;;;;;7.40;62.60;;;;;;5095041;28;20351;-57
2022/03/12 07:57:26;;;;;;;;;;;7.60;61.80;;;;;;5095911;28;19944;-57
2022/03/12 07:59:52;;;;;;;;;;;7.80;62.50;;;;;;5111899;28;19971;-57
2022/03/12 08:02:18;;;;;;;;;;;7.90;61.00;;;;;;5115463;28;19912;-57
2022/03/12 08:04:43;;;;;;;;;;;8.10;58.50;;;;;;5115940;28;19908;-57
2022/03/12 08:07:09;;;;;;;;;;;8.20;58.40;;;;;;5115789;28;20000;-57
2022/03/12 08:09:34;;;;;;;;;;;8.30;61.80;;;;;;5115416;28;19927;-57
2022/03/12 08:12:00;;;;;;;;;;;8.40;62.30;;;;;;5115625;28;20381;-57
2022/03/12 08:14:26;;;;;;;;;;;8.50;62.70;;;;;;5115788;28;20006;-56
2022/03/12 08:16:52;;;;;;;;;;;8.60;63.80;;;;;;5115393;28;19969;-57
2022/03/12 08:19:18;;;;;;;;;;;8.70;62.50;;;;;;5115633;28;20010;-57
2022/03/12 08:21:44;;;;;;;;;;;8.80;63.00;;;;;;5115328;28;19994;-57
2022/03/12 08:24:12;;;;;;;;;;;8.80;61.80;;;;;;5115478;28;19940;-57
2022/03/12 08:26:41;;;;;;;;;;;8.80;61.90;;;;;;5115636;28;19961;-57
2022/03/12 08:29:07;;;;;;;;;;;8.90;59.10;;;;;;5114835;28;19969;-57
2022/03/12 08:31:34;;;;;;;;;;;8.90;61.40;;;;;;5115610;28;19950;-57
2022/03/12 08:33:59;;;;;;;;;;;8.90;60.90;;;;;;5101242;28;20383;-57
2022/03/12 08:36:24;;;;;;;;;;;8.90;61.80;;;;;;5074329;28;19979;-57
2022/03/12 08:38:50;;;;;;;;;;;9.00;62.30;;;;;;5074877;28;19931;-57
2022/03/12 08:41:16;;;;;;;;;;;9.10;61.00;;;;;;5074580;28;19916;-57
2022/03/12 08:43:42;;;;;;;;;;;9.20;61.60;;;;;;5073664;28;19909;-56
2022/03/12 08:46:08;;;;;;;;;;;9.30;57.90;;;;;;5074476;28;20348;-57
2022/03/12 08:48:34;;;;;;;;;;;9.40;60.10;;;;;;5074660;28;19912;-56
2022/03/12 08:51:00;;;;;;;;;;;9.50;60.10;;;;;;5073780;28;19921;-57
2022/03/12 08:53:26;;;;;;;;;;;9.60;60.60;;;;;;5074629;28;20062;-57
2022/03/12 08:55:51;;;;;;;;;;;9.60;60.80;;;;;;5074408;28;20256;-57
2022/03/12 08:58:18;;;;;;;;;;;9.70;62.10;;;;;;5074036;28;19963;-57
2022/03/12 09:00:44;;;;;;;;;;;9.80;60.10;;;;;;5074370;28;20381;-57
2022/03/12 09:03:11;;;;;;;;;;;9.90;62.30;;;;;;5074195;28;20379;-57
2022/03/12 09:05:37;;;;;;;;;;;9.90;62.70;;;;;;5073818;28;19935;-57
2022/03/12 09:08:03;;;;;;;;;;;10.00;64.10;;;;;;5074049;28;19909;-57
2022/03/12 09:10:28;;;;;;;;;;;10.10;65.00;;;;;;5074242;28;19923;-57
2022/03/12 09:12:54;;;;;;;;;;;10.20;64.80;;;;;;5073409;28;20292;-57
2022/03/12 09:15:21;;;;;;;;;;;10.30;63.90;;;;;;5074152;28;19909;-56
2022/03/12 09:17:47;;;;;;;;;;;10.40;61.70;;;;;;5074187;28;19947;-57
2022/03/12 09:20:13;;;;;;;;;;;10.40;63.80;;;;;;5073210;28;19959;-57
2022/03/12 09:22:39;;;;;;;;;;;10.50;63.70;;;;;;5073898;28;19977;-57
2022/03/12 09:25:11;;;;;;;;;;;10.70;65.70;;;;;;5060888;28;20340;-57
2022/03/12 09:27:37;;;;;;;;;;;10.70;65.80;;;;;;5072572;28;19945;-57
2022/03/12 09:30:02;;;;;;;;;;;10.90;65.90;;;;;;5071670;28;19964;-57
2022/03/12 09:32:28;;;;;;;;;;;11.00;66.80;;;;;;5056995;28;19958;-57
2022/03/12 09:34:53;;;;;;;;;;;11.10;63.40;;;;;;5052100;28;19925;-57
2022/03/12 09:37:19;;;;;;;;;;;11.20;65.80;;;;;;5052889;28;19915;-57
2022/03/12 09:39:45;;;;;;;;;;;11.30;67.10;;;;;;5052614;28;19909;-56
2022/03/12 09:42:10;;;;;;;;;;;11.30;67.10;;;;;;5052219;28;20348;-57
2022/03/12 09:44:36;;;;;;;;;;;11.50;67.50;;;;;;5052746;28;19913;-57
2022/03/12 09:47:01;;;;;;;;;;;11.60;66.80;;;;;;5051754;28;19962;-57
2022/03/12 09:49:27;;;;;;;;;;;11.80;68.50;;;;;;5055352;28;19986;-57
2022/03/12 09:51:52;;;;;;;;;;;11.80;69.00;;;;;;5066512;28;19915;-57
2022/03/12 09:54:18;;;;;;;;;;;12.00;66.10;;;;;;5072216;28;19909;-57
2022/03/12 09:56:44;;;;;;;;;;;12.20;70.10;;;;;;5079011;28;19991;-57
2022/03/12 09:59:10;;;;;;;;;;;12.40;69.90;;;;;;5091481;28;19915;-57
2022/03/12 10:01:35;;;;;;;;;;;12.50;68.40;;;;;;5090806;28;20331;-57
2022/03/12 10:04:00;;;;;;;;;;;12.60;70.20;;;;;;5091768;28;20362;-57
2022/03/12 10:06:26;;;;;;;;;;;12.70;69.10;;;;;;5093532;28;19908;-57
2022/03/12 10:08:55;;;;;;;;;;;12.80;68.00;;;;;;5092684;28;20011;-56
2022/03/12 10:11:20;;;;;;;;;;;13.00;72.70;;;;;;5093187;28;20063;-57
2022/03/12 10:13:46;;;;;;;;;;;13.10;69.90;;;;;;5092371;28;20500;-56
2022/03/12 10:16:11;;;;;;;;;;;13.20;70.80;;;;;;5092090;28;20371;-56
2022/03/12 10:18:37;;;;;;;;;;;13.40;74.10;;;;;;5093281;28;19951;-57
2022/03/12 10:21:03;;;;;;;;;;;13.40;76.00;;;;;;5093006;28;19912;-57
2022/03/12 10:23:29;;;;;;;;;;;13.50;74.80;;;;;;5092751;28;20326;-57
2022/03/12 10:25:54;;;;;;;;;;;13.50;76.00;;;;;;5092772;28;20363;-57
2022/03/12 10:28:20;;;;;;;;;;;13.50;72.10;;;;;;5092654;28;19986;-57
2022/03/12 10:30:45;;;;;;;;;;;13.60;77.90;;;;;;5093028;28;19920;-56
2022/03/12 10:33:19;;;;;;;;;;;13.70;81.00;;;;;;5092538;28;19970;-56
2022/03/12 10:35:45;;;;;;;;;;;13.70;75.90;;;;;;5073420;28;20485;-57
2022/03/12 10:38:11;;;;;;;;;;;13.80;75.90;;;;;;5072483;28;19908;-56
2022/03/12 10:40:36;;;;;;;;;;;13.90;76.00;;;;;;5072974;28;19913;-56
2022/03/12 10:43:05;;;;;;;;;;;13.90;72.20;;;;;;5071861;28;19916;-57
2022/03/12 10:45:31;;;;;;;;;;;14.10;80.20;;;;;;5072711;28;19916;-57
2022/03/12 10:47:59;;;;;;;;;;;14.10;70.50;;;;;;5072606;28;19961;-57
2022/03/12 10:50:26;;;;;;;;;;;14.00;71.40;;;;;;5072121;28;19920;-57
2022/03/12 10:52:53;;;;;;;;;;;14.10;73.30;;;;;;5072226;28;19908;-57
2022/03/12 10:55:23;;;;;;;;;;;14.10;71.00;;;;;;5072724;28;19920;-56
2022/03/12 10:57:56;;;;;;;;;;;14.10;80.30;;;;;;5072031;28;20382;-56
2022/03/12 11:00:23;;;;;;;;;;;14.20;68.10;;;;;;5072801;28;19916;-56
2022/03/12 11:02:53;;;;;;;;;;;14.20;75.20;;;;;;5072571;28;19908;-56
2022/03/12 11:05:20;;;;;;;;;;;14.20;72.70;;;;;;5070250;28;19916;-56
2022/03/12 11:07:45;;;;;;;;;;;14.30;77.00;;;;;;5075640;28;20019;-56
2022/03/12 11:10:19;;;;;;;;;;;14.30;75.20;;;;;;5075800;28;20039;-56
2022/03/12 11:12:51;;;;;;;;;;;14.40;73.00;;;;;;5075793;28;20272;-56
2022/03/12 11:15:16;;;;;;;;;;;14.40;78.60;;;;;;5075873;28;20007;-56
2022/03/12 11:17:43;;;;;;;;;;;14.50;80.90;;;;;;5075558;28;20007;-56
2022/03/12 11:20:13;;;;;;;;;;;14.50;79.00;;;;;;5075958;28;19909;-56
2022/03/12 11:22:38;;;;;;;;;;;14.30;78.30;;;;;;5076421;28;19940;-56
2022/03/12 11:25:04;;;;;;;;;;;14.20;82.10;;;;;;5075424;28;19974;-56
2022/03/12 11:27:33;;;;;;;;;;;14.20;82.10;;;;;;5076304;28;19912;-56
2022/03/12 11:30:00;;;;;;;;;;;14.40;88.00;;;;;;5075956;28;19920;-56
2022/03/12 11:32:30;;;;;;;;;;;14.50;87.30;;;;;;5075114;28;19995;-56
2022/03/12 11:35:04;;;;;;;;;;;14.60;80.30;;;;;;5071536;28;19924;-56
2022/03/12 11:37:30;;;;;;;;;;;14.70;77.30;;;;;;5088916;28;19908;-56
2022/03/12 11:39:58;;;;;;;;;;;14.70;78.50;;;;;;5061033;28;19966;-56
2022/03/12 11:42:24;;;;;;;;;;;14.80;78.00;;;;;;5055878;28;20414;-56
2022/03/12 11:44:50;;;;;;;;;;;14.90;84.50;;;;;;5055968;28;19963;-56
2022/03/12 11:47:17;;;;;;;;;;;15.00;84.60;;;;;;5055003;28;19917;-56
2022/03/12 11:49:42;;;;;;;;;;;15.00;76.40;;;;;;5055733;28;19923;-56
2022/03/12 11:52:08;;;;;;;;;;;14.90;77.20;;;;;;5055469;28;19908;-56
2022/03/12 11:54:35;;;;;;;;;;;14.70;79.30;;;;;;5058272;28;20401;-56
2022/03/12 11:57:01;;;;;;;;;;;14.50;82.80;;;;;;5075229;28;20349;-56
2022/03/12 11:59:27;;;;;;;;;;;14.50;90.80;;;;;;5064631;28;20008;-56
2022/03/12 12:02:01;;;;;;;;;;;14.60;91.70;;;;;;5088922;28;20005;-56
2022/03/12 12:04:32;;;;;;;;;;;14.60;90.00;;;;;;5090132;28;19932;-56
2022/03/12 12:07:01;;;;;;;;;;;14.60;90.60;;;;;;5074568;28;20366;-56
2022/03/12 12:09:28;;;;;;;;;;;14.60;88.00;;;;;;5075335;28;20008;-56
2022/03/12 12:11:54;;;;;;;;;;;14.70;85.90;;;;;;5074983;28;19909;-56
2022/03/12 12:14:19;;;;;;;;;;;14.90;90.20;;;;;;5074748;28;19996;-56
2022/03/12 12:16:48;;;;;;;;;;;15.30;82.20;;;;;;5075463;28;19950;-56
2022/03/12 12:19:13;;;;;;;;;;;15.70;85.20;;;;;;5073949;28;19916;-56
2022/03/12 12:21:39;;;;;;;;;;;15.70;73.10;;;;;;5068104;28;19913;-56
2022/03/12 12:24:30;;;;;;;;;;;15.60;74.30;;;;;;5054951;28;19909;-56
2022/03/12 12:26:57;;;;;;;;;;;15.70;72.70;;;;;;5050860;28;19951;-56
2022/03/12 12:29:41;;;;;;;;;;;15.80;80.00;;;;;;5054359;28;19998;-56
2022/03/12 12:32:10;;;;;;;;;;;15.80;72.20;;;;;;5054618;28;19913;-56
2022/03/12 12:34:35;;;;;;;;;;;15.80;78.80;;;;;;5069082;28;19920;-56
2022/03/12 12:37:02;;;;;;;;;;;16.00;84.70;;;;;;5081860;28;19912;-56
2022/03/12 12:39:27;;;;;;;;;;;16.00;74.50;;;;;;5094751;28;20363;-52
2022/03/12 12:41:53;;;;;;;;;;;16.20;75.20;;;;;;5093173;28;19915;-53
2022/03/12 12:44:33;;;;;;;;;;;16.10;69.00;;;;;;5094037;28;19981;-50
2022/03/12 12:47:00;;;;;;;;;;;16.10;76.70;;;;;;5074741;28;19920;-54
2022/03/12 12:49:46;;;;;;;;;;;16.00;73.10;;;;;;5074001;28;20137;-52
2022/03/12 12:52:12;;;;;;;;;;;15.90;72.50;;;;;;5074121;28;19919;-50
2022/03/12 12:54:43;;;;;;;;;;;16.00;77.50;;;;;;5094621;28;19975;-51
2022/03/12 12:57:11;;;;;;;;;;;16.10;78.40;;;;;;5094024;28;19908;-49
2022/03/12 12:59:38;;;;;;;;;;;16.00;71.60;;;;;;5094681;28;20335;-49
2022/03/12 13:02:04;;;;;;;;;;;16.00;75.00;;;;;;5094415;28;20373;-51
2022/03/12 13:04:48;;;;;;;;;;;16.00;70.40;;;;;;5094105;28;19957;-51
2022/03/12 13:07:19;;;;;;;;;;;15.90;72.20;;;;;;5094276;28;19952;-50
2022/03/12 13:09:47;;;;;;;;;;;15.70;70.20;;;;;;5094383;28;20348;-52
2022/03/12 13:12:15;;;;;;;;;;;15.70;71.80;;;;;;5093637;28;19911;-49
2022/03/12 13:14:44;;;;;;;;;;;15.70;72.70;;;;;;5093600;28;19908;-53
2022/03/12 13:17:20;;;;;;;;;;;15.70;72.50;;;;;;5092718;28;19912;-49
2022/03/12 13:19:46;;;;;;;;;;;15.70;69.90;;;;;;5094037;28;19912;-50
2022/03/12 13:22:13;;;;;;;;;;;15.80;75.50;;;;;;5092524;28;19923;-49
2022/03/12 13:24:46;;;;;;;;;;;15.90;79.50;;;;;;5092800;28;19912;-50
2022/03/12 13:27:15;;;;;;;;;;;15.90;75.70;;;;;;5087820;28;20006;-52
2022/03/12 13:29:41;;;;;;;;;;;15.80;67.80;;;;;;5093006;28;20325;-50
2022/03/12 13:32:12;;;;;;;;;;;16.00;73.70;;;;;;5092416;28;19916;-51
2022/03/12 13:34:37;;;;;;;;;;;16.20;71.10;;;;;;5089162;28;20367;-51
2022/03/12 13:37:03;;;;;;;;;;;16.60;76.50;;;;;;5084247;28;19912;-52
2022/03/12 13:39:31;;;;;;;;;;;16.80;64.90;;;;;;5077680;28;19912;-51
2022/03/12 13:42:00;;;;;;;;;;;16.90;65.20;;;;;;5092332;28;19931;-50
2022/03/12 13:44:26;;;;;;;;;;;16.90;62.80;;;;;;5073600;28;19936;-49
2022/03/12 13:46:51;;;;;;;;;;;16.90;61.80;;;;;;5081331;28;20363;-52
2022/03/12 13:49:19;;;;;;;;;;;16.90;62.20;;;;;;5078590;28;20303;-50
2022/03/12 13:51:51;;;;;;;;;;;16.90;60.40;;;;;;5089129;28;19912;-53
2022/03/12 13:54:17;;;;;;;;;;;17.00;63.30;;;;;;5078466;28;19920;-50
2022/03/12 13:56:43;;;;;;;;;;;17.30;64.20;;;;;;5083222;28;20594;-51
2022/03/12 13:59:12;;;;;;;;;;;17.40;58.90;;;;;;5092271;28;19913;-49
2022/03/12 14:01:41;;;;;;;;;;;17.50;60.30;;;;;;5079129;28;19912;-51
2022/03/12 14:04:15;;;;;;;;;;;17.60;58.10;;;;;;5072840;28;19913;-50
2022/03/12 14:06:40;;;;;;;;;;;17.80;61.00;;;;;;5071507;28;19909;-50
2022/03/12 14:09:09;;;;;;;;;;;18.30;58.20;;;;;;5081086;28;19977;-51
2022/03/12 14:11:36;;;;;;;;;;;18.40;53.60;;;;;;5089211;28;19934;-53
2022/03/12 14:14:03;;;;;;;;;;;18.40;53.30;;;;;;5092187;28;20428;-53
2022/03/12 14:16:29;;;;;;;;;;;18.30;52.60;;;;;;5086174;28;20638;-51
2022/03/12 14:18:56;;;;;;;;;;;18.20;54.90;;;;;;5085776;28;19947;-53
2022/03/12 14:21:35;;;;;;;;;;;18.20;55.50;;;;;;5092589;28;19908;-50
2022/03/12 14:24:19;;;;;;;;;;;18.30;56.50;;;;;;5084571;28;19919;-51